Time;durP1;ratioP1;P1;durP2;ratioP2;P2;SDS_P1;SDS_P2;PMS_P1;PMS_P2;Temp;Humidity;BMP_temperature;BMP_pressure;BME280_temperature;BME280_humidity;BME280_pressure;Samples;Min_cycle;Max_cycle;Signal;HPM_P1;HPM_P2
2022/05/12 00:02:07;;;;;;;3.67;3.30;;;;;;;;;;5004100;28;20217;-28
2022/05/12 00:04:36;;;;;;;3.50;3.03;;;;;;;;;;5010758;28;20226;-31
2022/05/12 00:07:04;;;;;;;5.33;3.10;;;;;;;;;;5001117;28;20229;-33
2022/05/12 00:09:31;;;;;;;4.17;3.70;;;;;;;;;;5004342;28;20225;-30
2022/05/12 00:11:58;;;;;;;3.43;3.00;;;;;;;;;;5001585;28;20203;-31
2022/05/12 00:14:25;;;;;;;4.60;4.00;;;;;;;;;;5000671;28;20217;-30
2022/05/12 00:16:56;;;;;;;3.43;3.13;;;;;;;;;;4991616;28;20228;-30
2022/05/12 00:19:23;;;;;;;3.30;3.00;;;;;;;;;;4990992;28;20471;-28
2022/05/12 00:21:52;;;;;;;5.73;2.63;;;;;;;;;;4999135;28;20205;-31
2022/05/12 00:24:19;;;;;;;3.53;3.07;;;;;;;;;;5006823;28;20222;-31
2022/05/12 00:26:46;;;;;;;4.70;3.40;;;;;;;;;;5007588;28;20225;-31
2022/05/12 00:29:14;;;;;;;3.63;3.30;;;;;;;;;;5000624;28;20215;-31
2022/05/12 00:31:42;;;;;;;3.73;3.13;;;;;;;;;;4991076;28;20248;-29
2022/05/12 00:34:10;;;;;;;4.57;3.30;;;;;;;;;;4991024;28;20217;-30
2022/05/12 00:36:37;;;;;;;4.30;2.80;;;;;;;;;;5000620;28;20226;-30
2022/05/12 00:39:06;;;;;;;3.33;2.90;;;;;;;;;;5003061;28;20212;-32
2022/05/12 00:41:33;;;;;;;3.27;2.67;;;;;;;;;;5004102;28;20209;-30
2022/05/12 00:44:02;;;;;;;4.87;3.17;;;;;;;;;;5006331;28;20578;-32
2022/05/12 00:46:32;;;;;;;3.77;3.00;;;;;;;;;;5001925;28;20294;-29
2022/05/12 00:49:00;;;;;;;3.97;3.20;;;;;;;;;;4991036;28;20570;-27
2022/05/12 00:51:29;;;;;;;3.70;3.40;;;;;;;;;;4992831;28;20213;-29
2022/05/12 00:53:58;;;;;;;6.00;3.10;;;;;;;;;;5001838;28;20204;-30
2022/05/12 00:56:27;;;;;;;3.40;3.10;;;;;;;;;;5006464;28;20233;-32
2022/05/12 00:58:59;;;;;;;4.43;3.17;;;;;;;;;;4997274;28;20211;-31
2022/05/12 01:01:26;;;;;;;5.10;3.53;;;;;;;;;;5004809;28;20511;-27
2022/05/12 01:03:54;;;;;;;7.87;3.90;;;;;;;;;;5008634;28;20205;-29
2022/05/12 01:06:21;;;;;;;4.33;3.10;;;;;;;;;;4999340;28;20575;-32
2022/05/12 01:08:48;;;;;;;3.40;3.10;;;;;;;;;;4992879;28;20217;-31
2022/05/12 01:11:16;;;;;;;3.77;3.20;;;;;;;;;;4996891;28;20219;-28
2022/05/12 01:13:47;;;;;;;3.40;3.10;;;;;;;;;;4999884;28;20217;-30
2022/05/12 01:16:33;;;;;;;4.80;2.90;;;;;;;;;;5000201;28;20221;-31
2022/05/12 01:19:00;;;;;;;4.37;3.37;;;;;;;;;;5014410;28;20221;-28
2022/05/12 01:21:27;;;;;;;3.53;3.23;;;;;;;;;;5004981;28;20220;-33
2022/05/12 01:23:55;;;;;;;3.80;3.30;;;;;;;;;;5005916;28;20204;-31
2022/05/12 01:26:22;;;;;;;5.33;3.17;;;;;;;;;;4994209;28;20234;-29
2022/05/12 01:28:50;;;;;;;3.47;3.17;;;;;;;;;;4998129;28;20657;-31
2022/05/12 01:31:18;;;;;;;3.20;2.90;;;;;;;;;;4994567;28;20208;-31
2022/05/12 01:33:45;;;;;;;4.67;3.40;;;;;;;;;;4994875;28;20210;-30
2022/05/12 01:36:12;;;;;;;3.17;2.87;;;;;;;;;;5003887;28;20235;-32
2022/05/12 01:38:39;;;;;;;2.90;2.70;;;;;;;;;;5004255;28;20232;-31
2022/05/12 01:41:07;;;;;;;4.33;3.20;;;;;;;;;;4999791;28;20217;-28
2022/05/12 01:43:34;;;;;;;4.67;2.90;;;;;;;;;;5003355;28;20214;-31
2022/05/12 01:46:02;;;;;;;4.23;3.00;;;;;;;;;;5013803;28;20297;-29
2022/05/12 01:48:29;;;;;;;5.53;3.10;;;;;;;;;;5014152;28;20206;-31
2022/05/12 01:50:56;;;;;;;4.77;2.80;;;;;;;;;;5009180;28;20206;-32
2022/05/12 01:53:23;;;;;;;6.80;3.27;;;;;;;;;;4998662;28;20214;-31
2022/05/12 01:55:50;;;;;;;3.37;3.07;;;;;;;;;;5007059;28;20224;-32
2022/05/12 01:58:20;;;;;;;3.00;2.70;;;;;;;;;;5000305;28;20206;-31
2022/05/12 02:00:48;;;;;;;3.20;2.90;;;;;;;;;;4996822;28;20220;-28
2022/05/12 02:03:15;;;;;;;3.73;3.07;;;;;;;;;;4995119;28;20218;-30
2022/05/12 02:05:43;;;;;;;4.00;3.40;;;;;;;;;;4991286;28;20241;-28
2022/05/12 02:08:11;;;;;;;5.50;2.80;;;;;;;;;;5002052;28;20216;-30
2022/05/12 02:10:39;;;;;;;3.40;3.10;;;;;;;;;;4993393;28;20236;-31
2022/05/12 02:13:07;;;;;;;4.10;3.00;;;;;;;;;;5000488;28;20212;-32
2022/05/12 02:15:36;;;;;;;3.50;3.07;;;;;;;;;;5007967;28;20217;-31
2022/05/12 02:18:03;;;;;;;6.03;3.10;;;;;;;;;;4992684;28;20228;-32
2022/05/12 02:20:30;;;;;;;4.07;3.20;;;;;;;;;;4991505;28;20210;-29
2022/05/12 02:22:57;;;;;;;5.63;2.73;;;;;;;;;;5005885;28;20680;-30
2022/05/12 02:25:24;;;;;;;3.63;3.33;;;;;;;;;;4992678;28;20247;-29
2022/05/12 02:27:52;;;;;;;3.90;3.50;;;;;;;;;;5000798;28;20250;-30
2022/05/12 02:30:20;;;;;;;4.23;3.10;;;;;;;;;;5005564;28;20210;-32
2022/05/12 02:32:49;;;;;;;5.00;3.30;;;;;;;;;;4992565;28;20205;-31
2022/05/12 02:35:16;;;;;;;4.03;3.13;;;;;;;;;;4996507;28;20220;-30
2022/05/12 02:37:43;;;;;;;8.30;3.40;;;;;;;;;;5007803;28;20224;-29
2022/05/12 02:40:11;;;;;;;3.33;2.97;;;;;;;;;;4998704;28;20240;-31
2022/05/12 02:42:38;;;;;;;6.37;2.90;;;;;;;;;;5000722;28;20213;-30
2022/05/12 02:45:06;;;;;;;3.83;3.00;;;;;;;;;;5007199;28;20570;-30
2022/05/12 02:47:33;;;;;;;4.40;3.10;;;;;;;;;;4996265;28;20217;-32
2022/05/12 02:50:02;;;;;;;3.70;3.37;;;;;;;;;;4991048;28;20213;-29
2022/05/12 02:52:29;;;;;;;3.97;3.20;;;;;;;;;;4995703;28;20210;-30
2022/05/12 02:54:56;;;;;;;3.50;3.07;;;;;;;;;;4999995;28;20196;-31
2022/05/12 02:57:23;;;;;;;6.37;3.13;;;;;;;;;;4990370;28;20240;-32
2022/05/12 02:59:51;;;;;;;3.70;2.67;;;;;;;;;;5004672;28;20674;-30
2022/05/12 03:02:18;;;;;;;3.30;3.00;;;;;;;;;;4992202;28;20207;-29
2022/05/12 03:04:46;;;;;;;3.73;3.33;;;;;;;;;;4993507;28;20247;-27
2022/05/12 03:07:14;;;;;;;5.80;3.40;;;;;;;;;;4999224;28;20226;-31
2022/05/12 03:09:42;;;;;;;4.03;2.90;;;;;;;;;;4999282;28;20210;-28
2022/05/12 03:12:09;;;;;;;3.10;2.90;;;;;;;;;;5000793;28;20209;-31
2022/05/12 03:14:36;;;;;;;3.10;2.80;;;;;;;;;;5002189;28;20605;-27
2022/05/12 03:17:04;;;;;;;3.80;3.50;;;;;;;;;;4992293;28;20225;-31
2022/05/12 03:19:31;;;;;;;3.40;2.70;;;;;;;;;;4995014;28;20220;-27
2022/05/12 03:21:59;;;;;;;5.30;3.43;;;;;;;;;;5001682;28;20209;-28
2022/05/12 03:24:27;;;;;;;3.60;3.30;;;;;;;;;;5003072;28;20216;-29
2022/05/12 03:26:54;;;;;;;6.00;2.83;;;;;;;;;;4996153;28;20228;-28
2022/05/12 03:29:22;;;;;;;3.10;2.80;;;;;;;;;;5004226;28;20562;-32
2022/05/12 03:31:49;;;;;;;3.00;2.80;;;;;;;;;;5000785;28;20300;-31
2022/05/12 03:34:16;;;;;;;3.03;2.80;;;;;;;;;;5072782;22;20230;-38
2022/05/12 03:36:43;;;;;;;2.97;2.67;;;;;;;;;;5051713;28;20222;-39
2022/05/12 03:39:10;;;;;;;3.67;2.80;;;;;;;;;;5051323;28;20202;-36
2022/05/12 03:41:39;;;;;;;2.97;2.60;;;;;;;;;;5049963;28;20204;-36
2022/05/12 03:46:51;;;;;;;3.03;2.73;;;;;;;;;;5051285;28;20235;-34
2022/05/12 03:49:18;;;;;;;4.80;3.00;;;;;;;;;;5042816;28;20222;-36
2022/05/12 03:51:45;;;;;;;3.33;3.03;;;;;;;;;;5052719;28;20211;-30
2022/05/12 03:54:13;;;;;;;3.03;2.83;;;;;;;;;;5053946;28;20217;-35
2022/05/12 03:56:42;;;;;;;4.00;2.90;;;;;;;;;;5048905;28;20222;-37
2022/05/12 03:59:10;;;;;;;4.97;3.13;;;;;;;;;;5052809;28;20207;-33
2022/05/12 04:01:37;;;;;;;3.10;2.77;;;;;;;;;;5053426;28;20206;-30
2022/05/12 04:04:04;;;;;;;5.07;3.03;;;;;;;;;;5053550;28;20209;-31
2022/05/12 04:06:31;;;;;;;4.00;3.00;;;;;;;;;;5054797;28;20235;-36
2022/05/12 04:08:58;;;;;;;3.03;2.80;;;;;;;;;;5044237;28;20199;-36
2022/05/12 04:11:25;;;;;;;3.40;3.10;;;;;;;;;;5051286;28;20211;-31
2022/05/12 04:13:54;;;;;;;4.93;3.57;;;;;;;;;;5052240;28;20242;-29
2022/05/12 04:16:22;;;;;;;3.80;3.10;;;;;;;;;;5053236;28;20284;-31
2022/05/12 04:18:49;;;;;;;3.17;2.97;;;;;;;;;;5053159;28;20208;-35
2022/05/12 04:21:17;;;;;;;3.00;2.80;;;;;;;;;;5051170;28;20305;-36
2022/05/12 04:23:45;;;;;;;4.00;2.80;;;;;;;;;;5052136;28;20235;-34
2022/05/12 04:26:12;;;;;;;3.57;3.27;;;;;;;;;;5051050;28;20230;-34
2022/05/12 04:28:39;;;;;;;4.87;2.67;;;;;;;;;;5052184;28;20214;-34
2022/05/12 04:31:07;;;;;;;4.00;3.20;;;;;;;;;;5052404;28;20200;-31
2022/05/12 04:36:19;;;;;;;2.90;2.70;;;;;;;;;;5050390;28;20287;-36
2022/05/12 04:38:46;;;;;;;3.60;3.30;;;;;;;;;;5050441;28;20211;-31
2022/05/12 04:41:13;;;;;;;6.47;3.50;;;;;;;;;;5048058;28;20292;-34
2022/05/12 04:43:40;;;;;;;2.90;2.70;;;;;;;;;;5053634;28;20232;-38
2022/05/12 04:46:09;;;;;;;3.30;2.97;;;;;;;;;;5052148;28;20226;-36
2022/05/12 04:48:36;;;;;;;4.20;2.63;;;;;;;;;;5053097;28;20212;-32
2022/05/12 04:51:04;;;;;;;3.73;3.00;;;;;;;;;;5051207;28;20230;-36
2022/05/12 04:53:31;;;;;;;3.40;2.80;;;;;;;;;;5052439;28;20218;-34
2022/05/12 04:55:58;;;;;;;3.20;2.90;;;;;;;;;;5033031;28;20228;-34
2022/05/12 04:58:26;;;;;;;6.60;3.20;;;;;;;;;;5051915;28;20203;-36
2022/05/12 05:00:53;;;;;;;5.47;3.03;;;;;;;;;;5051703;28;20193;-31
2022/05/12 05:03:22;;;;;;;3.43;3.13;;;;;;;;;;5049957;28;20215;-33
2022/05/12 05:05:49;;;;;;;4.00;2.97;;;;;;;;;;5051398;28;20751;-38
2022/05/12 05:08:17;;;;;;;3.67;2.97;;;;;;;;;;5052912;28;20218;-33
2022/05/12 05:10:44;;;;;;;4.60;3.17;;;;;;;;;;5050567;28;20219;-37
2022/05/12 05:13:11;;;;;;;6.60;3.30;;;;;;;;;;5049543;28;20206;-36
2022/05/12 05:15:39;;;;;;;3.20;3.00;;;;;;;;;;5052465;28;20258;-34
2022/05/12 05:18:06;;;;;;;5.23;3.10;;;;;;;;;;5053722;28;20204;-36
2022/05/12 05:20:35;;;;;;;3.13;2.83;;;;;;;;;;5052137;28;20211;-31
2022/05/12 05:23:02;;;;;;;3.77;2.60;;;;;;;;;;5052773;28;20202;-31
2022/05/12 05:25:31;;;;;;;3.93;2.87;;;;;;;;;;5052472;28;20222;-29
2022/05/12 05:27:58;;;;;;;6.27;3.10;;;;;;;;;;5047705;28;20227;-32
2022/05/12 05:30:26;;;;;;;5.30;3.40;;;;;;;;;;5052095;28;20295;-35
2022/05/12 05:32:53;;;;;;;2.90;2.70;;;;;;;;;;5051900;28;20548;-35
2022/05/12 05:35:20;;;;;;;4.17;3.10;;;;;;;;;;5051346;28;20247;-33
2022/05/12 05:37:50;;;;;;;7.63;3.00;;;;;;;;;;5051579;28;20233;-36
2022/05/12 05:40:18;;;;;;;4.67;2.73;;;;;;;;;;5051929;28;20215;-37
2022/05/12 05:42:47;;;;;;;3.27;2.87;;;;;;;;;;5050246;28;20270;-33
2022/05/12 05:45:17;;;;;;;3.10;2.90;;;;;;;;;;5051560;28;20215;-32
2022/05/12 05:47:45;;;;;;;3.13;2.87;;;;;;;;;;5049672;28;20221;-37
2022/05/12 05:50:14;;;;;;;4.37;3.00;;;;;;;;;;5052541;28;20209;-30
2022/05/12 05:55:27;;;;;;;3.07;2.83;;;;;;;;;;5054605;28;20228;-32
2022/05/12 05:57:54;;;;;;;6.17;3.20;;;;;;;;;;5052985;28;20206;-35
2022/05/12 06:00:22;;;;;;;6.70;3.20;;;;;;;;;;5055310;28;20430;-32
2022/05/12 06:02:50;;;;;;;3.00;2.80;;;;;;;;;;5054696;28;20209;-31
2022/05/12 06:05:18;;;;;;;2.90;2.70;;;;;;;;;;5053263;28;20299;-32
2022/05/12 06:07:45;;;;;;;4.00;2.80;;;;;;;;;;5054936;28;20224;-33
2022/05/12 06:10:13;;;;;;;2.90;2.70;;;;;;;;;;5055352;28;20215;-29
2022/05/12 06:12:42;;;;;;;4.03;2.57;;;;;;;;;;5053820;28;20235;-34
2022/05/12 06:15:10;;;;;;;3.43;3.00;;;;;;;;;;5054771;28;20204;-32
2022/05/12 06:17:37;;;;;;;4.60;2.97;;;;;;;;;;5055360;28;20210;-30
2022/05/12 06:20:06;;;;;;;4.03;3.37;;;;;;;;;;5053510;28;20239;-31
2022/05/12 06:22:36;;;;;;;6.10;3.60;;;;;;;;;;5055265;28;20255;-35
2022/05/12 06:25:05;;;;;;;4.27;3.60;;;;;;;;;;5054233;28;20212;-32
2022/05/12 06:27:33;;;;;;;4.90;3.20;;;;;;;;;;5052183;28;20307;-31
2022/05/12 06:30:01;;;;;;;4.03;3.40;;;;;;;;;;5054793;28;20197;-32
2022/05/12 06:32:30;;;;;;;3.43;3.13;;;;;;;;;;5054909;28;20565;-31
2022/05/12 06:34:57;;;;;;;5.70;3.20;;;;;;;;;;5055005;28;20218;-37
2022/05/12 06:37:24;;;;;;;4.63;3.03;;;;;;;;;;5049936;28;20228;-33
2022/05/12 06:39:51;;;;;;;5.50;3.40;;;;;;;;;;5052490;28;20230;-36
2022/05/12 06:42:19;;;;;;;4.13;3.70;;;;;;;;;;5050263;28;20241;-36
2022/05/12 06:44:46;;;;;;;8.48;4.18;;;;;;;;;;5052289;28;20218;-32
2022/05/12 06:47:16;;;;;;;3.95;3.20;;;;;;;;;;5053054;28;20225;-29
2022/05/12 06:49:43;;;;;;;4.32;3.33;;;;;;;;;;5052919;28;20209;-29
2022/05/12 06:52:13;;;;;;;5.93;3.28;;;;;;;;;;5050075;28;20292;-34
2022/05/12 06:54:41;;;;;;;4.20;3.38;;;;;;;;;;5053888;28;20237;-36
2022/05/12 06:57:09;;;;;;;4.93;3.08;;;;;;;;;;5052001;28;20275;-34
2022/05/12 06:59:38;;;;;;;2.65;2.30;;;;;;;;;;5053807;28;20244;-31
2022/05/12 07:02:05;;;;;;;2.88;1.95;;;;;;;;;;5053690;28;20200;-33
2022/05/12 07:04:34;;;;;;;2.58;2.13;;;;;;;;;;5054757;28;20214;-32
2022/05/12 07:07:01;;;;;;;2.22;2.05;;;;;;;;;;5051417;28;20223;-33
2022/05/12 07:09:30;;;;;;;4.25;2.05;;;;;;;;;;5054535;28;20234;-36
2022/05/12 07:12:00;;;;;;;5.10;2.40;;;;;;;;;;5039831;28;20294;-34
2022/05/12 07:14:27;;;;;;;2.97;1.92;;;;;;;;;;5054076;28;20210;-35
2022/05/12 07:16:54;;;;;;;2.00;1.90;;;;;;;;;;5054082;28;20273;-34
2022/05/12 07:19:22;;;;;;;1.70;1.60;;;;;;;;;;5054845;28;20201;-33
2022/05/12 07:27:37;;;;;;;3.70;1.63;;;;;;;;;;5049979;28;20328;-31
2022/05/12 07:30:04;;;;;;;4.53;1.90;;;;;;;;;;5053744;28;20206;-34
2022/05/12 07:32:32;;;;;;;3.22;2.20;;;;;;;;;;5056956;28;20207;-36
2022/05/12 07:34:59;;;;;;;3.42;1.70;;;;;;;;;;5053272;28;20221;-33
2022/05/12 07:37:28;;;;;;;3.20;1.63;;;;;;;;;;5053840;28;20226;-31
2022/05/12 07:39:55;;;;;;;2.17;1.58;;;;;;;;;;5054583;28;20299;-34
2022/05/12 07:42:22;;;;;;;4.70;1.73;;;;;;;;;;5050019;28;20214;-33
2022/05/12 07:44:50;;;;;;;1.98;1.52;;;;;;;;;;5052608;28;20212;-32
2022/05/12 07:47:17;;;;;;;5.68;1.48;;;;;;;;;;5053628;28;20263;-32
2022/05/12 07:49:44;;;;;;;2.17;1.25;;;;;;;;;;5050772;28;20309;-38
2022/05/12 07:52:13;;;;;;;5.28;1.45;;;;;;;;;;5053211;28;20215;-37
2022/05/12 07:54:42;;;;;;;4.00;1.50;;;;;;;;;;5053266;28;20208;-38
2022/05/12 07:57:09;;;;;;;2.47;1.40;;;;;;;;;;5051033;28;20229;-33
2022/05/12 07:59:37;;;;;;;1.63;1.30;;;;;;;;;;5053178;28;20290;-33
2022/05/12 08:02:04;;;;;;;2.63;1.40;;;;;;;;;;5051423;28;20228;-36
2022/05/12 08:04:34;;;;;;;4.10;1.40;;;;;;;;;;5052758;28;20204;-38
2022/05/12 08:07:04;;;;;;;1.30;1.17;;;;;;;;;;5052850;28;20306;-37
2022/05/12 08:09:31;;;;;;;2.90;1.20;;;;;;;;;;5051513;28;20211;-39
2022/05/12 08:12:00;;;;;;;1.55;0.95;;;;;;;;;;5052598;28;20211;-34
2022/05/12 08:14:27;;;;;;;2.30;1.10;;;;;;;;;;5051815;28;20216;-36
2022/05/12 08:16:56;;;;;;;2.20;1.40;;;;;;;;;;5053206;28;20277;-33
2022/05/12 08:19:24;;;;;;;1.25;1.15;;;;;;;;;;5053322;28;20204;-35
2022/05/12 08:21:51;;;;;;;1.88;1.40;;;;;;;;;;5051274;28;20215;-36
2022/05/12 08:24:18;;;;;;;2.53;1.70;;;;;;;;;;5052774;28;20208;-38
2022/05/12 08:26:45;;;;;;;3.42;1.90;;;;;;;;;;5050611;28;20223;-32
2022/05/12 08:29:14;;;;;;;1.25;1.15;;;;;;;;;;5052617;28;20265;-34
2022/05/12 08:31:43;;;;;;;3.22;1.63;;;;;;;;;;5052726;28;20207;-35
2022/05/12 08:34:10;;;;;;;3.13;2.28;;;;;;;;;;5053129;28;20243;-35
2022/05/12 08:36:38;;;;;;;3.60;1.80;;;;;;;;;;5050935;28;20320;-33
2022/05/12 08:39:05;;;;;;;3.85;1.35;;;;;;;;;;5052467;28;20296;-34
2022/05/12 08:41:37;;;;;;;1.98;1.40;;;;;;;;;;5051074;28;20203;-34
2022/05/12 08:44:08;;;;;;;1.63;1.40;;;;;;;;;;5052897;28;20356;-38
2022/05/12 08:46:40;;;;;;;2.72;1.27;;;;;;;;;;5052845;28;20282;-33
2022/05/12 08:49:12;;;;;;;4.20;1.75;;;;;;;;;;5052857;28;20217;-33
2022/05/12 08:51:39;;;;;;;4.82;1.60;;;;;;;;;;5050389;28;20208;-39
2022/05/12 08:54:09;;;;;;;3.75;1.95;;;;;;;;;;5051406;28;20299;-35
2022/05/12 08:56:37;;;;;;;1.58;1.48;;;;;;;;;;5049829;28;20255;-34
2022/05/12 08:59:04;;;;;;;2.25;1.42;;;;;;;;;;5052319;28;20201;-30
2022/05/12 09:01:36;;;;;;;1.55;1.45;;;;;;;;;;5052149;28;20200;-33
2022/05/12 09:04:14;;;;;;;3.38;1.95;;;;;;;;;;5050752;28;20207;-33
2022/05/12 09:06:43;;;;;;;5.25;2.10;;;;;;;;;;5050391;28;20238;-30
2022/05/12 09:09:15;;;;;;;1.40;1.30;;;;;;;;;;5052081;28;20286;-34
2022/05/12 09:11:46;;;;;;;1.60;1.50;;;;;;;;;;5049039;28;20215;-35
2022/05/12 09:14:17;;;;;;;2.42;1.90;;;;;;;;;;5051112;28;20614;-37
2022/05/12 09:16:53;;;;;;;2.53;1.67;;;;;;;;;;5051281;28;20224;-36
2022/05/12 09:19:22;;;;;;;2.25;1.58;;;;;;;;;;5052936;28;20187;-35
2022/05/12 09:21:51;;;;;;;1.95;1.48;;;;;;;;;;5050087;28;20208;-40
2022/05/12 09:24:18;;;;;;;2.22;1.75;;;;;;;;;;5052271;28;20358;-35
2022/05/12 09:26:46;;;;;;;4.85;1.50;;;;;;;;;;5055624;28;20234;-35
2022/05/12 09:29:17;;;;;;;3.53;1.60;;;;;;;;;;5057405;28;20252;-38
2022/05/12 09:31:46;;;;;;;3.35;1.60;;;;;;;;;;5054698;28;20211;-32
2022/05/12 09:34:18;;;;;;;3.90;1.77;;;;;;;;;;5054664;28;20222;-36
2022/05/12 09:36:46;;;;;;;3.72;1.90;;;;;;;;;;5043921;28;20228;-33
2022/05/12 09:39:32;;;;;;;4.43;1.63;;;;;;;;;;5055352;28;20215;-32
2022/05/12 09:42:00;;;;;;;2.30;1.88;;;;;;;;;;5053363;28;20290;-30
2022/05/12 09:44:28;;;;;;;2.90;1.92;;;;;;;;;;5055623;28;20209;-31
2022/05/12 09:46:58;;;;;;;4.13;1.80;;;;;;;;;;5055376;28;20221;-34
2022/05/12 09:49:30;;;;;;;2.55;1.92;;;;;;;;;;5056102;28;20228;-35
2022/05/12 09:51:59;;;;;;;1.67;1.58;;;;;;;;;;5053821;28;20292;-38
2022/05/12 09:54:28;;;;;;;3.10;2.00;;;;;;;;;;5054599;28;20207;-31
2022/05/12 09:56:59;;;;;;;3.72;1.80;;;;;;;;;;5055400;28;20310;-33
2022/05/12 09:59:28;;;;;;;2.70;2.17;;;;;;;;;;5055463;28;20214;-31
2022/05/12 10:01:56;;;;;;;2.10;1.77;;;;;;;;;;5056090;28;20210;-35
2022/05/12 10:10:10;;;;;;;2.22;1.63;;;;;;;;;;5055552;28;20196;-32
2022/05/12 10:12:40;;;;;;;4.85;1.77;;;;;;;;;;5054108;28;20275;-36
2022/05/12 10:15:11;;;;;;;2.50;2.30;;;;;;;;;;5055396;28;20299;-34
2022/05/12 10:17:41;;;;;;;3.10;1.90;;;;;;;;;;5056351;28;20195;-35
2022/05/12 10:20:09;;;;;;;3.95;2.17;;;;;;;;;;5055428;28;20218;-34
2022/05/12 10:22:41;;;;;;;2.40;2.03;;;;;;;;;;5058721;28;20215;-33
2022/05/12 10:25:16;;;;;;;2.67;1.90;;;;;;;;;;5056194;28;20198;-37
2022/05/12 10:27:46;;;;;;;2.30;2.15;;;;;;;;;;5055690;28;20306;-31
2022/05/12 10:30:21;;;;;;;4.32;1.80;;;;;;;;;;5056074;28;20210;-34
2022/05/12 10:32:54;;;;;;;2.03;1.90;;;;;;;;;;5055800;28;20204;-38
2022/05/12 10:35:22;;;;;;;2.75;2.15;;;;;;;;;;5054634;28;20221;-39
2022/05/12 10:37:59;;;;;;;6.07;2.17;;;;;;;;;;5053462;28;20210;-32
2022/05/12 10:40:31;;;;;;;3.08;2.30;;;;;;;;;;5056187;28;20194;-34
2022/05/12 10:43:06;;;;;;;2.35;2.25;;;;;;;;;;5055083;28;20291;-39
2022/05/12 10:45:37;;;;;;;2.38;2.08;;;;;;;;;;5055187;28;20225;-37
2022/05/12 10:48:23;;;;;;;2.60;2.25;;;;;;;;;;5055970;28;20219;-33
2022/05/12 10:50:54;;;;;;;3.42;2.55;;;;;;;;;;5055820;28;20260;-34
2022/05/12 10:53:29;;;;;;;3.53;2.60;;;;;;;;;;5055350;28;20207;-34
2022/05/12 10:56:00;;;;;;;3.28;2.42;;;;;;;;;;5035800;28;20227;-35
2022/05/12 10:58:34;;;;;;;5.43;2.53;;;;;;;;;;5053609;28;20209;-36
2022/05/12 11:01:09;;;;;;;3.00;2.55;;;;;;;;;;5047025;28;20205;-33
2022/05/12 11:03:39;;;;;;;3.10;2.58;;;;;;;;;;5055169;28;20285;-32
2022/05/12 11:06:09;;;;;;;2.75;2.55;;;;;;;;;;5053895;28;20218;-33
2022/05/12 11:08:40;;;;;;;5.03;2.78;;;;;;;;;;5053676;28;20218;-39
2022/05/12 11:11:09;;;;;;;6.35;2.33;;;;;;;;;;5053017;28;20442;-36
2022/05/12 11:13:39;;;;;;;3.90;2.50;;;;;;;;;;5052063;28;20207;-36
2022/05/12 11:16:10;;;;;;;5.65;2.42;;;;;;;;;;5053984;28;20255;-35
2022/05/12 11:18:41;;;;;;;3.42;2.45;;;;;;;;;;5052882;28;20228;-33
2022/05/12 11:21:13;;;;;;;4.72;2.85;;;;;;;;;;5052055;28;20214;-38
2022/05/12 11:23:55;;;;;;;2.88;2.60;;;;;;;;;;5053427;28;20201;-33
2022/05/12 11:26:32;;;;;;;4.80;3.20;;;;;;;;;;5051948;28;23290;-33
2022/05/12 11:31:48;;;;;;;3.33;2.78;;;;;;;;;;5052111;28;20209;-35
2022/05/12 11:34:17;;;;;;;3.65;2.63;;;;;;;;;;5051975;28;20253;-32
2022/05/12 11:36:45;;;;;;;3.55;2.28;;;;;;;;;;5051321;28;20239;-32
2022/05/12 11:39:24;;;;;;;3.35;2.67;;;;;;;;;;5053075;28;20211;-33
2022/05/12 11:42:06;;;;;;;3.22;2.80;;;;;;;;;;5050526;28;20283;-33
2022/05/12 11:44:39;;;;;;;4.70;2.92;;;;;;;;;;5049300;28;20200;-37
2022/05/12 11:47:33;;;;;;;4.53;2.72;;;;;;;;;;5052622;28;20234;-35
2022/05/12 11:50:13;;;;;;;5.50;2.75;;;;;;;;;;5052000;28;20300;-39
2022/05/12 11:52:53;;;;;;;4.20;3.17;;;;;;;;;;5051605;28;20207;-35
2022/05/12 11:55:24;;;;;;;3.67;2.80;;;;;;;;;;5047753;28;20209;-38
2022/05/12 11:58:03;;;;;;;3.90;2.72;;;;;;;;;;5049939;28;20302;-34
2022/05/12 12:00:45;;;;;;;3.60;2.85;;;;;;;;;;5052295;28;20207;-38
2022/05/12 12:03:31;;;;;;;3.03;2.53;;;;;;;;;;5050251;28;20206;-38
2022/05/12 12:05:59;;;;;;;4.95;2.70;;;;;;;;;;5050439;28;20231;-38
2022/05/12 12:08:40;;;;;;;4.60;2.78;;;;;;;;;;5048594;28;20234;-38
2022/05/12 12:11:22;;;;;;;5.50;2.80;;;;;;;;;;5050998;28;20203;-33
2022/05/12 12:13:51;;;;;;;4.30;3.00;;;;;;;;;;5051822;28;20221;-35
2022/05/12 12:16:19;;;;;;;3.28;2.97;;;;;;;;;;5050475;28;20229;-38
2022/05/12 12:18:59;;;;;;;3.28;2.80;;;;;;;;;;5052158;28;20200;-38
2022/05/12 12:21:33;;;;;;;3.13;2.55;;;;;;;;;;5047322;28;20191;-35
2022/05/12 12:24:05;;;;;;;3.72;2.50;;;;;;;;;;5047368;28;20216;-31
2022/05/12 12:26:36;;;;;;;4.47;2.70;;;;;;;;;;5046059;28;20314;-33
2022/05/12 12:29:15;;;;;;;4.38;2.40;;;;;;;;;;5051837;28;20259;-33
2022/05/12 12:31:44;;;;;;;4.47;3.05;;;;;;;;;;5052651;28;20206;-37
2022/05/12 12:34:15;;;;;;;3.00;2.80;;;;;;;;;;5050073;28;20303;-35
2022/05/12 12:37:07;;;;;;;5.15;2.33;;;;;;;;;;5052047;28;20224;-32
2022/05/12 12:39:41;;;;;;;2.63;2.20;;;;;;;;;;5052662;28;20196;-35
2022/05/12 12:42:23;;;;;;;4.40;2.60;;;;;;;;;;5050868;28;20213;-34
2022/05/12 12:44:52;;;;;;;6.85;2.30;;;;;;;;;;5052767;28;20208;-34
2022/05/12 12:47:27;;;;;;;9.50;2.28;;;;;;;;;;5053076;28;20223;-35
2022/05/12 12:49:57;;;;;;;2.53;2.20;;;;;;;;;;5050346;28;20234;-30
2022/05/12 12:52:26;;;;;;;3.17;2.40;;;;;;;;;;5052483;28;20211;-35
2022/05/12 12:57:46;;;;;;;3.28;2.22;;;;;;;;;;5050295;28;20291;-37
2022/05/12 13:00:17;;;;;;;3.03;2.40;;;;;;;;;;5054379;28;20235;-36
2022/05/12 13:02:56;;;;;;;3.30;3.10;;;;;;;;;;5059579;28;20274;-38
2022/05/12 13:05:24;;;;;;;4.15;2.88;;;;;;;;;;5057320;28;20298;-35
2022/05/12 13:07:54;;;;;;;3.30;2.83;;;;;;;;;;5058559;28;20220;-33
2022/05/12 13:10:22;;;;;;;2.53;2.30;;;;;;;;;;5058556;28;20227;-35
2022/05/12 13:12:53;;;;;;;2.85;2.40;;;;;;;;;;5056891;28;20208;-39
2022/05/12 13:15:23;;;;;;;6.18;2.30;;;;;;;;;;5058375;28;20211;-35
2022/05/12 13:17:51;;;;;;;3.42;2.58;;;;;;;;;;5058438;28;20262;-34
2022/05/12 13:20:21;;;;;;;3.38;2.55;;;;;;;;;;5057021;28;20204;-35
2022/05/12 13:22:49;;;;;;;3.88;2.45;;;;;;;;;;5056794;28;20204;-35
2022/05/12 13:25:20;;;;;;;3.53;2.15;;;;;;;;;;5058597;28;20251;-37
2022/05/12 13:27:47;;;;;;;4.95;2.78;;;;;;;;;;5056468;28;20211;-35
2022/05/12 13:30:16;;;;;;;5.53;3.05;;;;;;;;;;5058813;28;20260;-35
2022/05/12 13:32:47;;;;;;;2.60;2.40;;;;;;;;;;5059206;28;20262;-33
2022/05/12 13:35:20;;;;;;;3.80;2.72;;;;;;;;;;5058649;28;20234;-40
2022/05/12 13:37:52;;;;;;;2.70;2.35;;;;;;;;;;5053305;28;20212;-34
2022/05/12 13:40:40;;;;;;;2.63;2.35;;;;;;;;;;5058133;28;20201;-31
2022/05/12 13:43:13;;;;;;;2.45;2.25;;;;;;;;;;5054091;28;20200;-36
2022/05/12 13:45:41;;;;;;;3.75;2.90;;;;;;;;;;5055667;28;20307;-34
2022/05/12 13:48:14;;;;;;;3.08;2.40;;;;;;;;;;5057969;28;20208;-36
2022/05/12 13:50:45;;;;;;;2.67;2.15;;;;;;;;;;5056052;28;20234;-37
2022/05/12 13:53:13;;;;;;;2.65;2.38;;;;;;;;;;5057859;28;20265;-37
2022/05/12 13:55:40;;;;;;;3.08;2.42;;;;;;;;;;5057924;28;20228;-38
2022/05/12 13:58:12;;;;;;;3.03;2.50;;;;;;;;;;5055184;28;20210;-40
2022/05/12 14:00:40;;;;;;;2.85;2.30;;;;;;;;;;5054850;28;20262;-41
2022/05/12 14:03:16;;;;;;;2.47;2.17;;;;;;;;;;5058209;28;20246;-34
2022/05/12 14:05:44;;;;;;;3.72;2.20;;;;;;;;;;5054542;28;20258;-34
2022/05/12 14:08:14;;;;;;;3.47;2.30;;;;;;;;;;5057193;28;20216;-31
2022/05/12 14:10:42;;;;;;;2.75;2.20;;;;;;;;;;5057108;28;20223;-30
2022/05/12 14:21:31;;;;;;;2.30;2.10;;;;;;;;;;5053411;28;20281;-35
2022/05/12 14:23:59;;;;;;;2.17;1.98;;;;;;;;;;5054935;28;20207;-34
2022/05/12 14:26:26;;;;;;;5.78;2.58;;;;;;;;;;5044527;28;20235;-34
2022/05/12 14:28:54;;;;;;;3.33;2.30;;;;;;;;;;5056822;28;20211;-35
2022/05/12 14:31:23;;;;;;;2.55;2.35;;;;;;;;;;5054587;28;20264;-32
2022/05/12 14:33:52;;;;;;;2.17;1.98;;;;;;;;;;5055065;28;20208;-34
2022/05/12 14:36:19;;;;;;;4.55;2.40;;;;;;;;;;5055266;28;20253;-37
2022/05/12 14:38:47;;;;;;;2.70;2.08;;;;;;;;;;5052792;28;20204;-35
2022/05/12 14:41:15;;;;;;;3.00;2.40;;;;;;;;;;5049430;28;20278;-34
2022/05/12 14:43:42;;;;;;;2.97;2.50;;;;;;;;;;5048723;28;20214;-38
2022/05/12 14:46:10;;;;;;;5.60;2.40;;;;;;;;;;5052072;28;20222;-35
2022/05/12 14:48:39;;;;;;;4.97;2.63;;;;;;;;;;5048452;28;20205;-33
2022/05/12 14:51:08;;;;;;;2.85;2.17;;;;;;;;;;5053573;28;20238;-34
2022/05/12 14:53:36;;;;;;;2.92;2.30;;;;;;;;;;5054292;28;20199;-31
2022/05/12 14:56:04;;;;;;;2.88;2.40;;;;;;;;;;5054954;28;20227;-36
2022/05/12 14:58:31;;;;;;;2.45;2.17;;;;;;;;;;5055122;28;20262;-38
2022/05/12 15:00:58;;;;;;;3.55;2.40;;;;;;;;;;5046932;28;20642;-36
2022/05/12 15:03:26;;;;;;;2.58;2.30;;;;;;;;;;5054136;28;20215;-37
2022/05/12 15:05:53;;;;;;;3.40;3.03;;;;;;;;;;5050735;28;20231;-36
2022/05/12 15:08:21;;;;;;;5.30;2.33;;;;;;;;;;5053777;28;20210;-39
2022/05/12 15:10:49;;;;;;;4.03;2.55;;;;;;;;;;5054116;28;20231;-34
2022/05/12 15:13:16;;;;;;;2.30;2.20;;;;;;;;;;5051192;28;20243;-37
2022/05/12 15:15:43;;;;;;;3.42;2.35;;;;;;;;;;5049409;28;20230;-36
2022/05/12 15:18:13;;;;;;;3.80;2.20;;;;;;;;;;5049597;28;20203;-33
2022/05/12 15:20:40;;;;;;;4.80;2.25;;;;;;;;;;5051378;28;20207;-35
2022/05/12 15:23:07;;;;;;;3.15;2.33;;;;;;;;;;5052690;28;20198;-39
2022/05/12 15:25:36;;;;;;;2.30;2.10;;;;;;;;;;5053225;28;20226;-36
2022/05/12 15:28:03;;;;;;;8.70;3.42;;;;;;;;;;5050626;28;20202;-36
2022/05/12 15:30:31;;;;;;;4.13;2.10;;;;;;;;;;5053487;28;20291;-34